Terminal Aerodrome Forecast
Issued by NWS

Home | Current Version | Previous Version | Text Only | Print | Product List | Glossary On
Versions: 1 2 3 4 5 6 7 8 9 10 11 12 13
000
FTUS42 KMLB 191700 RRA
TAFTIX
TAF
KTIX 191742Z 1918/2018 09009KT P6SM VCSH SCT030 BKN120
     FM200000 04004KT P6SM -SHRA BKN030
     FM201400 02005KT P6SM VCSH BKN030 OVC060=

USA.gov is the U.S. government's official web portal to all federal, state and local government web resources and services.